This is the latest recevied weather packets stored in our database for station/object K7SPS-10. If no packets are shown the sender has not sent any weather packets the latest 10 day(s).
| Time | Temp. | Humidity | Pressure | Rain* | Wind** | Luminosity | Snow |
|---|---|---|---|---|---|---|---|
| 1777506230 | 19.44° C | 33% | 1019.7 hPa | 0 mm | - | 184 W/m² | - |
| 1777505928 | 19.44° C | 33% | 1019.6 hPa | 0 mm | - | 161 W/m² | - |
| 1777505623 | 20° C | 32% | 1019.8 hPa | 0 mm | - | 209 W/m² | - |
| 1777505320 | 20° C | 32% | 1019.6 hPa | 0 mm | - | 325 W/m² | - |
| 1777505017 | 20.56° C | 30% | 1019.5 hPa | 0 mm | - | 368 W/m² | - |
| 1777504714 | 21.11° C | 31% | 1019.4 hPa | 0 mm | - | 497 W/m² | - |
| 1777504412 | 20° C | 32% | 1019.8 hPa | 0 mm | - | 531 W/m² | - |
| 1777504106 | 20.56° C | 32% | 1019.5 hPa | 0 mm | - | 520 W/m² | - |
| 1777503802 | 20.56° C | 30% | 1019.9 hPa | 0 mm | - | 522 W/m² | - |
| 1777503499 | 20.56° C | 29% | 1019.8 hPa | 0 mm | - | 540 W/m² | - |
| 1777503195 | 20.56° C | 28% | 1019.8 hPa | 0 mm | - | 549 W/m² | - |
| 1777502892 | 20.56° C | 29% | 1019.8 hPa | 0 mm | - | 559 W/m² | - |
| 1777502590 | 20.56° C | 30% | 1019.8 hPa | 0 mm | - | 565 W/m² | - |
| 1777502287 | 20.56° C | 29% | 1020 hPa | 0 mm | - | 577 W/m² | - |
| 1777501984 | 20.56° C | 28% | 1020.4 hPa | 0 mm | - | 614 W/m² | - |
| 1777501680 | 20.56° C | 30% | 1019.8 hPa | 0 mm | - | 621 W/m² | - |
| 1777501377 | 20.56° C | 29% | 1020.1 hPa | 0 mm | - | 645 W/m² | - |
| 1777501075 | 20.56° C | 30% | 1019.9 hPa | 0 mm | - | 674 W/m² | - |
| 1777500773 | 20.56° C | 31% | 1020.2 hPa | 0 mm | - | 677 W/m² | - |
| 1777500470 | 21.11° C | 30% | 1020 hPa | 0 mm | - | 680 W/m² | - |
| 1777500165 | 20.56° C | 31% | 1020.1 hPa | 0 mm | - | 705 W/m² | - |
| 1777499863 | 20° C | 35% | 1020.1 hPa | 0 mm | - | 382 W/m² | - |
| 1777499559 | 19.44° C | 34% | 1020.4 hPa | 0 mm | - | 412 W/m² | - |
| 1777499257 | 20° C | 33% | 1020.1 hPa | 0 mm | - | 352 W/m² | - |
| 1777498954 | 19.44° C | 32% | 1020.6 hPa | 0 mm | - | 356 W/m² | - |
* Rain latest hour (hover to see other rain measurements)
** Current wind speed in m/s (hover to see current wind gust speed)